sensor_id;sensor_type;location;lat;lon;timestamp;pressure;altitude;pressure_sealevel;temperature;humidity
61436;BME280;47304;47.456;19.160;2023-04-27T00:00:59;100433.37;;;5.50;55.71
61436;BME280;47304;47.456;19.160;2023-04-27T00:03:26;100429.51;;;5.47;55.91
61436;BME280;47304;47.456;19.160;2023-04-27T00:05:53;100428.09;;;5.45;55.93
61436;BME280;47304;47.456;19.160;2023-04-27T00:08:20;100423.73;;;5.44;56.17
61436;BME280;47304;47.456;19.160;2023-04-27T00:10:47;100416.75;;;5.44;56.03
61436;BME280;47304;47.456;19.160;2023-04-27T00:13:13;100418.65;;;5.43;55.97
61436;BME280;47304;47.456;19.160;2023-04-27T00:15:40;100427.14;;;5.42;56.12
61436;BME280;47304;47.456;19.160;2023-04-27T00:18:06;100424.70;;;5.41;56.04
61436;BME280;47304;47.456;19.160;2023-04-27T00:20:33;100432.45;;;5.46;56.01
61436;BME280;47304;47.456;19.160;2023-04-27T00:22:59;100435.09;;;5.49;55.94
61436;BME280;47304;47.456;19.160;2023-04-27T00:25:26;100429.92;;;5.51;55.90
61436;BME280;47304;47.456;19.160;2023-04-27T00:27:52;100432.76;;;5.52;55.46
61436;BME280;47304;47.456;19.160;2023-04-27T00:30:19;100427.18;;;5.52;55.36
61436;BME280;47304;47.456;19.160;2023-04-27T00:32:45;100431.20;;;5.53;55.11
61436;BME280;47304;47.456;19.160;2023-04-27T00:35:12;100429.66;;;5.55;55.10
61436;BME280;47304;47.456;19.160;2023-04-27T00:37:38;100426.39;;;5.56;54.51
61436;BME280;47304;47.456;19.160;2023-04-27T00:40:05;100426.05;;;5.56;54.47
61436;BME280;47304;47.456;19.160;2023-04-27T00:42:33;100427.46;;;5.58;54.54
61436;BME280;47304;47.456;19.160;2023-04-27T00:45:00;100427.64;;;5.58;54.51
61436;BME280;47304;47.456;19.160;2023-04-27T00:47:28;100425.38;;;5.57;54.57
61436;BME280;47304;47.456;19.160;2023-04-27T00:49:55;100425.55;;;5.57;54.30
61436;BME280;47304;47.456;19.160;2023-04-27T00:52:22;100423.39;;;5.54;54.28
61436;BME280;47304;47.456;19.160;2023-04-27T00:54:50;100426.55;;;5.55;54.11
61436;BME280;47304;47.456;19.160;2023-04-27T00:57:17;100426.15;;;5.52;53.88
61436;BME280;47304;47.456;19.160;2023-04-27T00:59:43;100429.98;;;5.53;54.11
61436;BME280;47304;47.456;19.160;2023-04-27T01:02:10;100426.67;;;5.53;54.50
61436;BME280;47304;47.456;19.160;2023-04-27T01:04:37;100423.02;;;5.53;54.51
61436;BME280;47304;47.456;19.160;2023-04-27T01:07:03;100427.52;;;5.52;54.03
61436;BME280;47304;47.456;19.160;2023-04-27T01:09:30;100425.05;;;5.50;54.11
61436;BME280;47304;47.456;19.160;2023-04-27T01:11:57;100429.02;;;5.50;53.95
61436;BME280;47304;47.456;19.160;2023-04-27T01:14:23;100431.96;;;5.48;53.56
61436;BME280;47304;47.456;19.160;2023-04-27T01:16:50;100437.33;;;5.46;53.56
61436;BME280;47304;47.456;19.160;2023-04-27T01:19:17;100432.77;;;5.45;54.18
61436;BME280;47304;47.456;19.160;2023-04-27T01:21:44;100428.75;;;5.44;54.31
61436;BME280;47304;47.456;19.160;2023-04-27T01:24:10;100428.54;;;5.42;54.25
61436;BME280;47304;47.456;19.160;2023-04-27T01:26:37;100440.85;;;5.41;54.56
61436;BME280;47304;47.456;19.160;2023-04-27T01:29:03;100441.71;;;5.41;54.92
61436;BME280;47304;47.456;19.160;2023-04-27T01:31:29;100443.95;;;5.40;54.71
61436;BME280;47304;47.456;19.160;2023-04-27T01:33:56;100441.31;;;5.39;54.79
61436;BME280;47304;47.456;19.160;2023-04-27T01:36:23;100444.05;;;5.37;54.70
61436;BME280;47304;47.456;19.160;2023-04-27T01:38:49;100443.14;;;5.35;54.80
61436;BME280;47304;47.456;19.160;2023-04-27T01:41:15;100446.54;;;5.31;54.63
61436;BME280;47304;47.456;19.160;2023-04-27T01:43:42;100448.23;;;5.29;54.95
61436;BME280;47304;47.456;19.160;2023-04-27T01:46:11;100443.30;;;5.26;54.70
61436;BME280;47304;47.456;19.160;2023-04-27T01:48:39;100446.55;;;5.24;55.11
61436;BME280;47304;47.456;19.160;2023-04-27T01:51:06;100448.41;;;5.22;54.98
61436;BME280;47304;47.456;19.160;2023-04-27T01:53:33;100450.96;;;5.20;55.22
61436;BME280;47304;47.456;19.160;2023-04-27T01:55:59;100445.88;;;5.17;55.61
61436;BME280;47304;47.456;19.160;2023-04-27T01:58:26;100452.46;;;5.17;55.65
61436;BME280;47304;47.456;19.160;2023-04-27T02:00:52;100451.34;;;5.13;55.78
61436;BME280;47304;47.456;19.160;2023-04-27T02:03:19;100454.98;;;5.12;55.80
61436;BME280;47304;47.456;19.160;2023-04-27T02:05:46;100453.92;;;5.12;55.98
61436;BME280;47304;47.456;19.160;2023-04-27T02:08:13;100457.88;;;5.11;56.20
61436;BME280;47304;47.456;19.160;2023-04-27T02:10:40;100458.02;;;5.09;56.09
61436;BME280;47304;47.456;19.160;2023-04-27T02:13:06;100458.83;;;5.06;56.24
61436;BME280;47304;47.456;19.160;2023-04-27T02:15:33;100459.66;;;5.05;56.37
61436;BME280;47304;47.456;19.160;2023-04-27T02:18:00;100463.60;;;5.03;56.57
61436;BME280;47304;47.456;19.160;2023-04-27T02:20:28;100464.80;;;5.02;56.60
61436;BME280;47304;47.456;19.160;2023-04-27T02:22:55;100464.60;;;5.01;56.54
61436;BME280;47304;47.456;19.160;2023-04-27T02:25:22;100460.89;;;4.98;56.67
61436;BME280;47304;47.456;19.160;2023-04-27T02:27:48;100467.31;;;4.98;56.92
61436;BME280;47304;47.456;19.160;2023-04-27T02:30:15;100472.44;;;4.94;56.96
61436;BME280;47304;47.456;19.160;2023-04-27T02:32:42;100472.33;;;4.90;56.88
61436;BME280;47304;47.456;19.160;2023-04-27T02:35:09;100477.58;;;4.84;57.14
61436;BME280;47304;47.456;19.160;2023-04-27T02:37:35;100472.77;;;4.80;57.44
61436;BME280;47304;47.456;19.160;2023-04-27T02:40:02;100472.38;;;4.77;57.57
61436;BME280;47304;47.456;19.160;2023-04-27T02:42:29;100475.27;;;4.75;57.64
61436;BME280;47304;47.456;19.160;2023-04-27T02:44:55;100473.67;;;4.74;57.73
61436;BME280;47304;47.456;19.160;2023-04-27T02:47:22;100473.29;;;4.72;57.89
61436;BME280;47304;47.456;19.160;2023-04-27T02:49:48;100477.92;;;4.70;58.00
61436;BME280;47304;47.456;19.160;2023-04-27T02:52:15;100476.65;;;4.68;58.33
61436;BME280;47304;47.456;19.160;2023-04-27T02:54:42;100481.76;;;4.64;58.60
61436;BME280;47304;47.456;19.160;2023-04-27T02:57:08;100484.58;;;4.59;58.72
61436;BME280;47304;47.456;19.160;2023-04-27T02:59:35;100487.95;;;4.55;58.91
61436;BME280;47304;47.456;19.160;2023-04-27T03:02:01;100492.50;;;4.50;59.11
61436;BME280;47304;47.456;19.160;2023-04-27T03:04:27;100492.29;;;4.48;59.30
61436;BME280;47304;47.456;19.160;2023-04-27T03:06:54;100493.10;;;4.46;59.42
61436;BME280;47304;47.456;19.160;2023-04-27T03:09:21;100497.20;;;4.43;59.37
61436;BME280;47304;47.456;19.160;2023-04-27T03:11:47;100499.00;;;4.40;59.41
61436;BME280;47304;47.456;19.160;2023-04-27T03:14:13;100501.01;;;4.36;59.54
61436;BME280;47304;47.456;19.160;2023-04-27T03:16:40;100503.05;;;4.35;59.63
61436;BME280;47304;47.456;19.160;2023-04-27T03:19:07;100502.15;;;4.34;59.77
61436;BME280;47304;47.456;19.160;2023-04-27T03:21:33;100504.55;;;4.33;59.83
61436;BME280;47304;47.456;19.160;2023-04-27T03:23:59;100507.95;;;4.31;59.82
61436;BME280;47304;47.456;19.160;2023-04-27T03:26:26;100503.76;;;4.30;59.79
61436;BME280;47304;47.456;19.160;2023-04-27T03:28:53;100504.21;;;4.27;59.89
61436;BME280;47304;47.456;19.160;2023-04-27T03:31:19;100511.79;;;4.25;60.00
61436;BME280;47304;47.456;19.160;2023-04-27T03:33:46;100514.02;;;4.24;60.20
61436;BME280;47304;47.456;19.160;2023-04-27T03:36:12;100515.52;;;4.22;60.14
61436;BME280;47304;47.456;19.160;2023-04-27T03:38:39;100519.48;;;4.21;60.29
61436;BME280;47304;47.456;19.160;2023-04-27T03:41:05;100517.34;;;4.19;60.34
61436;BME280;47304;47.456;19.160;2023-04-27T03:43:32;100523.36;;;4.17;60.12
61436;BME280;47304;47.456;19.160;2023-04-27T03:45:58;100523.15;;;4.16;60.40
61436;BME280;47304;47.456;19.160;2023-04-27T03:48:25;100527.81;;;4.15;60.37
61436;BME280;47304;47.456;19.160;2023-04-27T03:50:51;100528.84;;;4.14;60.59
61436;BME280;47304;47.456;19.160;2023-04-27T03:53:18;100529.36;;;4.14;60.66
61436;BME280;47304;47.456;19.160;2023-04-27T03:55:44;100532.91;;;4.17;60.74
61436;BME280;47304;47.456;19.160;2023-04-27T03:58:11;100532.77;;;4.19;60.78
61436;BME280;47304;47.456;19.160;2023-04-27T04:00:38;100536.10;;;4.20;60.72
61436;BME280;47304;47.456;19.160;2023-04-27T04:03:05;100537.50;;;4.20;60.84
61436;BME280;47304;47.456;19.160;2023-04-27T04:05:32;100536.27;;;4.20;60.97
61436;BME280;47304;47.456;19.160;2023-04-27T04:07:59;100536.11;;;4.20;60.98
61436;BME280;47304;47.456;19.160;2023-04-27T04:10:26;100542.73;;;4.22;60.99
61436;BME280;47304;47.456;19.160;2023-04-27T04:12:52;100542.73;;;4.21;60.98
61436;BME280;47304;47.456;19.160;2023-04-27T04:15:18;100541.50;;;4.21;60.84
61436;BME280;47304;47.456;19.160;2023-04-27T04:17:45;100551.20;;;4.27;60.93
61436;BME280;47304;47.456;19.160;2023-04-27T04:20:12;100552.84;;;4.30;60.95
61436;BME280;47304;47.456;19.160;2023-04-27T04:22:39;100560.42;;;4.34;60.85
61436;BME280;47304;47.456;19.160;2023-04-27T04:25:05;100560.92;;;4.40;60.84
61436;BME280;47304;47.456;19.160;2023-04-27T04:27:32;100564.15;;;4.44;60.73
61436;BME280;47304;47.456;19.160;2023-04-27T04:29:59;100560.98;;;4.48;60.63
61436;BME280;47304;47.456;19.160;2023-04-27T04:32:26;100568.59;;;4.53;60.78
61436;BME280;47304;47.456;19.160;2023-04-27T04:34:52;100570.41;;;4.57;60.75
61436;BME280;47304;47.456;19.160;2023-04-27T04:37:19;100573.27;;;4.60;60.65
61436;BME280;47304;47.456;19.160;2023-04-27T04:39:45;100575.82;;;4.64;60.50
61436;BME280;47304;47.456;19.160;2023-04-27T04:42:12;100574.89;;;4.68;60.68
61436;BME280;47304;47.456;19.160;2023-04-27T04:44:38;100577.09;;;4.73;60.32
61436;BME280;47304;47.456;19.160;2023-04-27T04:47:05;100580.54;;;4.78;60.48
61436;BME280;47304;47.456;19.160;2023-04-27T04:49:31;100581.36;;;4.83;60.71
61436;BME280;47304;47.456;19.160;2023-04-27T04:51:58;100581.81;;;4.88;60.75
61436;BME280;47304;47.456;19.160;2023-04-27T04:54:24;100580.88;;;4.92;60.88
61436;BME280;47304;47.456;19.160;2023-04-27T04:56:51;100584.46;;;4.96;60.71
61436;BME280;47304;47.456;19.160;2023-04-27T04:59:17;100585.31;;;5.02;60.62
61436;BME280;47304;47.456;19.160;2023-04-27T05:01:44;100580.41;;;5.08;60.58
61436;BME280;47304;47.456;19.160;2023-04-27T05:04:10;100582.66;;;5.14;60.34
61436;BME280;47304;47.456;19.160;2023-04-27T05:06:37;100589.64;;;5.23;60.46
61436;BME280;47304;47.456;19.160;2023-04-27T05:09:03;100589.31;;;5.31;60.37
61436;BME280;47304;47.456;19.160;2023-04-27T05:11:30;100594.73;;;5.39;60.46
61436;BME280;47304;47.456;19.160;2023-04-27T05:13:56;100595.45;;;5.48;60.52
61436;BME280;47304;47.456;19.160;2023-04-27T05:16:23;100598.83;;;5.57;59.96
61436;BME280;47304;47.456;19.160;2023-04-27T05:18:49;100597.13;;;5.67;59.56
61436;BME280;47304;47.456;19.160;2023-04-27T05:21:16;100597.55;;;5.77;59.16
61436;BME280;47304;47.456;19.160;2023-04-27T05:23:43;100601.78;;;5.88;58.85
61436;BME280;47304;47.456;19.160;2023-04-27T05:26:13;100602.20;;;5.99;58.28
61436;BME280;47304;47.456;19.160;2023-04-27T05:28:41;100608.91;;;6.10;58.12
61436;BME280;47304;47.456;19.160;2023-04-27T05:31:08;100612.94;;;6.20;57.13
61436;BME280;47304;47.456;19.160;2023-04-27T05:33:34;100613.27;;;6.27;56.59
61436;BME280;47304;47.456;19.160;2023-04-27T05:36:01;100616.58;;;6.37;56.15
61436;BME280;47304;47.456;19.160;2023-04-27T05:38:27;100615.48;;;6.42;55.67
61436;BME280;47304;47.456;19.160;2023-04-27T05:40:57;100614.66;;;6.46;55.32
61436;BME280;47304;47.456;19.160;2023-04-27T05:43:24;100616.89;;;6.51;55.22
61436;BME280;47304;47.456;19.160;2023-04-27T05:45:51;100615.95;;;6.57;54.82
61436;BME280;47304;47.456;19.160;2023-04-27T05:48:18;100617.67;;;6.65;54.74
61436;BME280;47304;47.456;19.160;2023-04-27T05:50:45;100618.73;;;6.74;54.54
61436;BME280;47304;47.456;19.160;2023-04-27T05:53:11;100621.30;;;6.82;53.70
61436;BME280;47304;47.456;19.160;2023-04-27T05:55:38;100621.08;;;6.88;53.61
61436;BME280;47304;47.456;19.160;2023-04-27T05:58:04;100618.10;;;6.97;53.30
61436;BME280;47304;47.456;19.160;2023-04-27T06:00:34;100617.92;;;7.07;53.17
61436;BME280;47304;47.456;19.160;2023-04-27T06:03:01;100618.46;;;7.17;52.76
61436;BME280;47304;47.456;19.160;2023-04-27T06:05:28;100624.40;;;7.28;51.91
61436;BME280;47304;47.456;19.160;2023-04-27T06:07:54;100625.27;;;7.38;51.41
61436;BME280;47304;47.456;19.160;2023-04-27T06:10:21;100627.69;;;7.48;50.91
61436;BME280;47304;47.456;19.160;2023-04-27T06:12:47;100625.27;;;7.59;50.59
61436;BME280;47304;47.456;19.160;2023-04-27T06:15:14;100625.98;;;7.72;49.89
61436;BME280;47304;47.456;19.160;2023-04-27T06:17:40;100622.30;;;7.84;49.24
61436;BME280;47304;47.456;19.160;2023-04-27T06:20:07;100625.84;;;7.98;48.89
61436;BME280;47304;47.456;19.160;2023-04-27T06:22:37;100623.61;;;8.14;49.03
61436;BME280;47304;47.456;19.160;2023-04-27T06:25:04;100624.19;;;8.31;47.86
61436;BME280;47304;47.456;19.160;2023-04-27T06:27:32;100630.52;;;8.48;47.47
61436;BME280;47304;47.456;19.160;2023-04-27T06:29:58;100631.29;;;8.67;47.87
61436;BME280;47304;47.456;19.160;2023-04-27T06:32:25;100635.57;;;8.91;47.12
61436;BME280;47304;47.456;19.160;2023-04-27T06:34:51;100633.02;;;9.18;45.93
61436;BME280;47304;47.456;19.160;2023-04-27T06:37:18;100631.12;;;9.39;44.36
61436;BME280;47304;47.456;19.160;2023-04-27T06:39:45;100629.86;;;9.57;45.15
61436;BME280;47304;47.456;19.160;2023-04-27T06:42:12;100634.73;;;9.77;45.29
61436;BME280;47304;47.456;19.160;2023-04-27T06:44:38;100634.34;;;9.97;44.47
61436;BME280;47304;47.456;19.160;2023-04-27T06:47:05;100632.70;;;10.14;43.97
61436;BME280;47304;47.456;19.160;2023-04-27T06:49:31;100639.63;;;10.32;43.93
61436;BME280;47304;47.456;19.160;2023-04-27T06:52:00;100640.08;;;10.48;42.71
61436;BME280;47304;47.456;19.160;2023-04-27T06:54:27;100639.09;;;10.64;42.29
61436;BME280;47304;47.456;19.160;2023-04-27T06:56:53;100636.67;;;10.74;41.66
61436;BME280;47304;47.456;19.160;2023-04-27T06:59:20;100639.14;;;10.81;41.72
61436;BME280;47304;47.456;19.160;2023-04-27T07:01:46;100640.55;;;10.83;41.92
61436;BME280;47304;47.456;19.160;2023-04-27T07:04:13;100634.23;;;10.81;41.77
61436;BME280;47304;47.456;19.160;2023-04-27T07:06:40;100637.40;;;10.84;41.13
61436;BME280;47304;47.456;19.160;2023-04-27T07:09:06;100640.20;;;10.83;39.97
61436;BME280;47304;47.456;19.160;2023-04-27T07:11:51;100638.27;;;10.81;39.80
61436;BME280;47304;47.456;19.160;2023-04-27T07:14:18;100640.71;;;10.80;40.60
61436;BME280;47304;47.456;19.160;2023-04-27T07:16:44;100635.46;;;10.80;40.10
61436;BME280;47304;47.456;19.160;2023-04-27T07:19:11;100638.79;;;10.83;40.61
61436;BME280;47304;47.456;19.160;2023-04-27T07:21:38;100637.41;;;10.89;40.62
61436;BME280;47304;47.456;19.160;2023-04-27T07:24:04;100634.96;;;10.94;40.77
61436;BME280;47304;47.456;19.160;2023-04-27T07:26:31;100636.91;;;10.98;40.36
61436;BME280;47304;47.456;19.160;2023-04-27T07:28:58;100637.09;;;11.02;40.47
61436;BME280;47304;47.456;19.160;2023-04-27T07:31:24;100641.30;;;11.08;40.45
61436;BME280;47304;47.456;19.160;2023-04-27T07:33:51;100643.59;;;11.13;40.26
61436;BME280;47304;47.456;19.160;2023-04-27T07:36:17;100644.48;;;11.15;40.36
61436;BME280;47304;47.456;19.160;2023-04-27T07:38:44;100645.36;;;11.14;40.09
61436;BME280;47304;47.456;19.160;2023-04-27T07:41:10;100647.81;;;11.14;40.37
61436;BME280;47304;47.456;19.160;2023-04-27T07:43:37;100646.41;;;11.18;39.47
61436;BME280;47304;47.456;19.160;2023-04-27T07:46:03;100648.53;;;11.27;39.75
61436;BME280;47304;47.456;19.160;2023-04-27T07:48:30;100643.79;;;11.37;38.07
61436;BME280;47304;47.456;19.160;2023-04-27T07:50:56;100644.85;;;11.47;37.40
61436;BME280;47304;47.456;19.160;2023-04-27T07:53:23;100643.81;;;11.58;36.64
61436;BME280;47304;47.456;19.160;2023-04-27T07:55:49;100635.73;;;11.69;37.27
61436;BME280;47304;47.456;19.160;2023-04-27T07:58:16;100637.83;;;11.83;37.08
61436;BME280;47304;47.456;19.160;2023-04-27T08:00:43;100640.09;;;12.00;37.00
61436;BME280;47304;47.456;19.160;2023-04-27T08:03:09;100643.02;;;12.21;35.79
61436;BME280;47304;47.456;19.160;2023-04-27T08:05:36;100638.92;;;12.43;35.24
61436;BME280;47304;47.456;19.160;2023-04-27T08:08:04;100639.90;;;12.63;34.42
61436;BME280;47304;47.456;19.160;2023-04-27T08:10:31;100639.26;;;12.85;34.85
61436;BME280;47304;47.456;19.160;2023-04-27T08:12:57;100639.65;;;13.09;32.98
61436;BME280;47304;47.456;19.160;2023-04-27T08:15:24;100643.10;;;13.19;32.89
61436;BME280;47304;47.456;19.160;2023-04-27T08:17:50;100644.98;;;13.29;31.92
61436;BME280;47304;47.456;19.160;2023-04-27T08:20:17;100643.16;;;13.33;30.86
61436;BME280;47304;47.456;19.160;2023-04-27T08:22:43;100644.02;;;13.38;31.82
61436;BME280;47304;47.456;19.160;2023-04-27T08:25:10;100647.99;;;13.51;32.40
61436;BME280;47304;47.456;19.160;2023-04-27T08:27:37;100644.94;;;13.59;32.02
61436;BME280;47304;47.456;19.160;2023-04-27T08:30:04;100646.32;;;13.62;32.57
61436;BME280;47304;47.456;19.160;2023-04-27T08:32:31;100644.32;;;13.70;32.58
61436;BME280;47304;47.456;19.160;2023-04-27T08:34:58;100644.05;;;13.80;32.20
61436;BME280;47304;47.456;19.160;2023-04-27T08:37:24;100645.17;;;13.91;31.20
61436;BME280;47304;47.456;19.160;2023-04-27T08:39:51;100642.50;;;13.95;30.89
61436;BME280;47304;47.456;19.160;2023-04-27T08:42:17;100647.56;;;13.98;30.66
61436;BME280;47304;47.456;19.160;2023-04-27T08:44:44;100646.20;;;14.11;30.49
61436;BME280;47304;47.456;19.160;2023-04-27T08:47:10;100646.92;;;14.27;30.27
61436;BME280;47304;47.456;19.160;2023-04-27T08:49:37;100646.59;;;14.39;30.40
61436;BME280;47304;47.456;19.160;2023-04-27T08:52:10;100646.20;;;14.57;30.47
61436;BME280;47304;47.456;19.160;2023-04-27T08:54:36;100645.55;;;14.69;29.10
61436;BME280;47304;47.456;19.160;2023-04-27T08:57:13;100645.77;;;14.65;28.42
61436;BME280;47304;47.456;19.160;2023-04-27T08:59:41;100640.61;;;14.69;28.71
61436;BME280;47304;47.456;19.160;2023-04-27T09:02:18;100634.94;;;14.85;29.12
61436;BME280;47304;47.456;19.160;2023-04-27T09:04:45;100633.38;;;14.84;27.78
61436;BME280;47304;47.456;19.160;2023-04-27T09:07:16;100628.80;;;14.82;29.01
61436;BME280;47304;47.456;19.160;2023-04-27T09:09:43;100624.67;;;14.88;29.06
61436;BME280;47304;47.456;19.160;2023-04-27T09:12:17;100623.60;;;15.00;29.85
61436;BME280;47304;47.456;19.160;2023-04-27T09:15:04;100622.87;;;15.14;28.92
61436;BME280;47304;47.456;19.160;2023-04-27T09:17:31;100621.44;;;15.16;28.26
61436;BME280;47304;47.456;19.160;2023-04-27T09:20:05;100622.55;;;15.23;28.59
61436;BME280;47304;47.456;19.160;2023-04-27T09:22:41;100614.95;;;15.25;28.70
61436;BME280;47304;47.456;19.160;2023-04-27T09:25:08;100612.52;;;15.22;27.68
61436;BME280;47304;47.456;19.160;2023-04-27T09:27:37;100612.34;;;15.22;28.03
61436;BME280;47304;47.456;19.160;2023-04-27T09:30:13;100613.33;;;15.27;28.56
61436;BME280;47304;47.456;19.160;2023-04-27T09:32:58;100609.38;;;15.42;29.00
61436;BME280;47304;47.456;19.160;2023-04-27T09:35:27;100609.07;;;15.60;28.80
61436;BME280;47304;47.456;19.160;2023-04-27T09:37:54;100605.60;;;15.76;29.02
61436;BME280;47304;47.456;19.160;2023-04-27T09:40:23;100599.30;;;15.83;29.75
61436;BME280;47304;47.456;19.160;2023-04-27T09:42:50;100596.33;;;15.93;29.97
61436;BME280;47304;47.456;19.160;2023-04-27T09:45:17;100599.89;;;16.01;29.17
61436;BME280;47304;47.456;19.160;2023-04-27T09:47:44;100601.42;;;16.03;28.86
61436;BME280;47304;47.456;19.160;2023-04-27T09:50:12;100597.50;;;16.05;29.09
61436;BME280;47304;47.456;19.160;2023-04-27T09:52:39;100596.38;;;16.09;28.47
61436;BME280;47304;47.456;19.160;2023-04-27T09:55:10;100600.41;;;16.01;28.09
61436;BME280;47304;47.456;19.160;2023-04-27T09:57:56;100595.27;;;16.11;27.47
61436;BME280;47304;47.456;19.160;2023-04-27T10:03:30;100584.52;;;16.10;27.83
61436;BME280;47304;47.456;19.160;2023-04-27T10:08:53;100585.20;;;16.28;28.26
61436;BME280;47304;47.456;19.160;2023-04-27T10:11:36;100578.13;;;16.37;28.84
61436;BME280;47304;47.456;19.160;2023-04-27T10:14:05;100575.09;;;16.47;27.41
61436;BME280;47304;47.456;19.160;2023-04-27T10:16:45;100575.80;;;16.55;28.41
61436;BME280;47304;47.456;19.160;2023-04-27T10:19:12;100566.87;;;16.75;29.15
61436;BME280;47304;47.456;19.160;2023-04-27T10:21:59;100570.80;;;17.05;29.08
61436;BME280;47304;47.456;19.160;2023-04-27T10:24:40;100567.91;;;17.43;27.75
61436;BME280;47304;47.456;19.160;2023-04-27T10:27:11;100570.64;;;17.40;26.03
61436;BME280;47304;47.456;19.160;2023-04-27T10:29:42;100572.36;;;17.21;26.18
61436;BME280;47304;47.456;19.160;2023-04-27T10:32:11;100571.85;;;17.06;26.29
61436;BME280;47304;47.456;19.160;2023-04-27T10:34:39;100573.66;;;16.87;26.27
61436;BME280;47304;47.456;19.160;2023-04-27T10:37:09;100571.00;;;17.31;26.30
61436;BME280;47304;47.456;19.160;2023-04-27T10:39:38;100559.62;;;19.39;25.15
61436;BME280;47304;47.456;19.160;2023-04-27T10:42:25;100554.52;;;21.46;22.58
61436;BME280;47304;47.456;19.160;2023-04-27T10:44:55;100552.61;;;23.19;22.12
61436;BME280;47304;47.456;19.160;2023-04-27T10:47:22;100557.48;;;25.06;21.65
61436;BME280;47304;47.456;19.160;2023-04-27T10:49:52;100555.06;;;26.87;20.74
61436;BME280;47304;47.456;19.160;2023-04-27T10:52:19;100556.25;;;27.40;19.11
61436;BME280;47304;47.456;19.160;2023-04-27T10:54:45;100559.29;;;27.37;18.10
61436;BME280;47304;47.456;19.160;2023-04-27T10:57:12;100556.25;;;26.60;19.03
61436;BME280;47304;47.456;19.160;2023-04-27T10:59:50;100561.52;;;25.54;19.42
61436;BME280;47304;47.456;19.160;2023-04-27T11:02:24;100561.79;;;24.62;19.58
61436;BME280;47304;47.456;19.160;2023-04-27T11:04:51;100558.20;;;23.61;19.45
61436;BME280;47304;47.456;19.160;2023-04-27T11:07:25;100562.90;;;22.77;19.92
61436;BME280;47304;47.456;19.160;2023-04-27T11:09:52;100562.83;;;22.68;19.99
61436;BME280;47304;47.456;19.160;2023-04-27T11:12:18;100567.61;;;22.25;19.39
61436;BME280;47304;47.456;19.160;2023-04-27T11:14:45;100566.05;;;21.21;20.20
61436;BME280;47304;47.456;19.160;2023-04-27T11:17:12;100563.51;;;20.64;20.74
61436;BME280;47304;47.456;19.160;2023-04-27T11:19:45;100558.60;;;20.39;21.47
61436;BME280;47304;47.456;19.160;2023-04-27T11:22:13;100559.88;;;20.24;22.11
61436;BME280;47304;47.456;19.160;2023-04-27T11:24:51;100562.51;;;20.16;22.01
61436;BME280;47304;47.456;19.160;2023-04-27T11:27:18;100560.04;;;20.10;22.37
61436;BME280;47304;47.456;19.160;2023-04-27T11:29:45;100558.44;;;19.95;21.68
61436;BME280;47304;47.456;19.160;2023-04-27T11:32:18;100556.20;;;19.57;22.12
61436;BME280;47304;47.456;19.160;2023-04-27T11:34:52;100553.59;;;19.36;24.02
61436;BME280;47304;47.456;19.160;2023-04-27T11:37:22;100550.77;;;19.29;23.41
61436;BME280;47304;47.456;19.160;2023-04-27T11:39:50;100550.73;;;19.20;23.51
61436;BME280;47304;47.456;19.160;2023-04-27T11:42:18;100545.86;;;19.06;24.22
61436;BME280;47304;47.456;19.160;2023-04-27T11:44:59;100546.69;;;18.85;23.00
61436;BME280;47304;47.456;19.160;2023-04-27T11:47:28;100547.98;;;18.43;23.78
61436;BME280;47304;47.456;19.160;2023-04-27T11:49:56;100548.77;;;18.16;23.98
61436;BME280;47304;47.456;19.160;2023-04-27T11:52:31;100555.75;;;18.01;23.63
61436;BME280;47304;47.456;19.160;2023-04-27T11:54:59;100553.02;;;17.64;23.37
61436;BME280;47304;47.456;19.160;2023-04-27T11:57:28;100560.99;;;17.30;24.10
61436;BME280;47304;47.456;19.160;2023-04-27T11:59:56;100553.89;;;17.09;24.40
61436;BME280;47304;47.456;19.160;2023-04-27T12:02:23;100550.45;;;16.97;25.16
61436;BME280;47304;47.456;19.160;2023-04-27T12:04:50;100551.47;;;16.99;24.87
61436;BME280;47304;47.456;19.160;2023-04-27T12:07:17;100541.67;;;17.02;25.83
61436;BME280;47304;47.456;19.160;2023-04-27T12:09:44;100541.95;;;17.12;25.62
61436;BME280;47304;47.456;19.160;2023-04-27T12:12:11;100540.11;;;17.08;24.98
61436;BME280;47304;47.456;19.160;2023-04-27T12:14:38;100543.92;;;16.96;25.08
61436;BME280;47304;47.456;19.160;2023-04-27T12:17:05;100545.23;;;16.85;24.99
61436;BME280;47304;47.456;19.160;2023-04-27T12:19:32;100538.27;;;16.87;25.05
61436;BME280;47304;47.456;19.160;2023-04-27T12:21:58;100537.26;;;16.93;25.31
61436;BME280;47304;47.456;19.160;2023-04-27T12:24:25;100539.34;;;16.87;25.24
61436;BME280;47304;47.456;19.160;2023-04-27T12:26:51;100548.11;;;16.67;25.27
61436;BME280;47304;47.456;19.160;2023-04-27T12:29:18;100544.59;;;16.59;25.56
61436;BME280;47304;47.456;19.160;2023-04-27T12:31:45;100542.88;;;16.48;25.74
61436;BME280;47304;47.456;19.160;2023-04-27T12:34:11;100547.52;;;16.39;25.51
61436;BME280;47304;47.456;19.160;2023-04-27T12:36:38;100540.32;;;16.44;26.15
61436;BME280;47304;47.456;19.160;2023-04-27T12:39:16;100539.25;;;16.61;26.78
61436;BME280;47304;47.456;19.160;2023-04-27T12:41:43;100538.32;;;16.78;25.76
61436;BME280;47304;47.456;19.160;2023-04-27T12:44:11;100534.83;;;16.83;24.87
61436;BME280;47304;47.456;19.160;2023-04-27T12:46:39;100533.17;;;16.86;25.46
61436;BME280;47304;47.456;19.160;2023-04-27T12:49:07;100530.52;;;17.09;26.46
61436;BME280;47304;47.456;19.160;2023-04-27T12:51:34;100534.23;;;17.37;27.35
61436;BME280;47304;47.456;19.160;2023-04-27T12:54:04;100529.31;;;17.50;26.77